Pagrindinis puslapis
METAR-TAF:

METAR-TAF

Oro uostai :

Cachimbo, Para, Brazilija

platuma: 09-20S, ilguma: 054-57W, Aukštis: 536 m

Dabartinis oras

Ataskaita buvo paskelbta 14 valandos ir 11 minutes, ne 20:00 UTC
Vėjas 8 kt iš Rytų/Šiaurės Rytų
Temperatūra 22°C
Drėgmė 100%
Slėgis 1010 hPa
Matomumas: 7000 m
Išsisklaidę debesys ne aukštis 2100 ft
Mažai debesys ne aukštis 2500 ft, Liūtiniai kamuoliniai debesys.
perkūnija, lietus

METAR: SBCC 082000Z 06008KT 7000 TSRA SCT021 FEW025CB 22/22 Q1010

Laikas: 07:11 (10:11 UTC)


TAF: trūkstamas

Orai ataskaitas ir orų prognozės (METAR, TAF).

turimą stotys yra geltonos ir raudonos taškus žemėlapyje.

Perkelti pele per norėdami pamatyti stoties vardą.

Tada spustelėkite, norėdami matyti oro stebėjimo ir prognozės.

Norėdami pakeisti žemėlapį: spustelėkite ant žalios mygtukų su juodo kryžiaus žemyn,; žalią mygtuką su brūkšneliu, jei norite nutolinti; arba žalių rodyklių gretimoms žemėlapius.


METAR-TAF: